Time;durP1;ratioP1;P1;durP2;ratioP2;P2;SDS_P1;SDS_P2;PMS_P1;PMS_P2;Temp;Humidity;BMP_temperature;BMP_pressure;BME280_temperature;BME280_humidity;BME280_pressure;Samples;Min_cycle;Max_cycle;Signal;HPM_P1;HPM_P2
2023/02/15 00:00:41;;;;;;;32.00;19.33;;;;;;;0.73;100.00;102800.50;5111649;28;20113;-52
2023/02/15 00:03:09;;;;;;;33.83;18.88;;;;;;;0.69;100.00;102808.25;5112268;27;20063;-50
2023/02/15 00:05:38;;;;;;;32.13;18.23;;;;;;;0.66;100.00;102799.56;5111823;28;20134;-49
2023/02/15 00:08:07;;;;;;;29.80;17.67;;;;;;;0.61;100.00;102792.63;5112059;28;20765;-49
2023/02/15 00:10:35;;;;;;;33.08;18.25;;;;;;;0.54;100.00;102789.13;5110367;28;20549;-50
2023/02/15 00:13:03;;;;;;;31.30;18.10;;;;;;;0.52;100.00;102782.19;5110765;28;20132;-50
2023/02/15 00:15:31;;;;;;;29.00;17.33;;;;;;;0.56;100.00;102791.72;5111210;28;20055;-50
2023/02/15 00:17:59;;;;;;;29.90;18.35;;;;;;;0.54;100.00;102789.13;5112135;28;20084;-50
2023/02/15 00:20:27;;;;;;;30.50;18.77;;;;;;;0.55;100.00;102795.19;5111848;28;20051;-49
2023/02/15 00:22:57;;;;;;;32.30;17.70;;;;;;;0.55;100.00;102790.00;5111576;28;20056;-52
2023/02/15 00:25:25;;;;;;;28.42;17.67;;;;;;;0.53;100.00;102782.19;5110692;28;20043;-52
2023/02/15 00:27:53;;;;;;;31.27;17.80;;;;;;;0.54;100.00;102785.69;5110587;28;20040;-52
2023/02/15 00:30:24;;;;;;;27.95;17.15;;;;;;;0.53;100.00;102789.13;5112733;28;20048;-53
2023/02/15 00:32:53;;;;;;;28.88;17.48;;;;;;;0.45;100.00;102792.53;5115038;28;20074;-52
2023/02/15 00:35:21;;;;;;;31.50;17.73;;;;;;;0.44;100.00;102792.50;5111698;28;20052;-49
2023/02/15 00:37:52;;;;;;;30.73;18.33;;;;;;;0.45;100.00;102791.63;5110416;28;20054;-48
2023/02/15 00:40:21;;;;;;;30.35;18.33;;;;;;;0.41;100.00;102789.88;5114990;28;20047;-50
2023/02/15 00:42:49;;;;;;;31.52;18.63;;;;;;;0.46;100.00;102796.84;5113255;27;20126;-51
2023/02/15 00:45:17;;;;;;;30.33;17.98;;;;;;;0.44;100.00;102787.34;5109211;28;20560;-49
2023/02/15 00:47:45;;;;;;;34.95;19.88;;;;;;;0.42;100.00;102784.69;5113706;28;20449;-51
2023/02/15 00:50:13;;;;;;;33.97;20.17;;;;;;;0.40;100.00;102780.41;5111392;28;20048;-49
2023/02/15 00:52:42;;;;;;;34.50;19.45;;;;;;;0.35;100.00;102780.34;5111383;28;20071;-49
2023/02/15 00:55:10;;;;;;;31.90;18.80;;;;;;;0.32;100.00;102781.19;5111827;28;20383;-48
2023/02/15 00:57:39;;;;;;;32.25;18.95;;;;;;;0.29;100.00;102772.53;5109415;28;20036;-50
2023/02/15 01:00:08;;;;;;;32.70;18.42;;;;;;;0.29;100.00;102772.53;5111222;28;20046;-48
2023/02/15 01:02:36;;;;;;;31.80;18.13;;;;;;;0.27;100.00;102774.22;5110473;28;20047;-52
2023/02/15 01:05:05;;;;;;;31.48;18.42;;;;;;;0.22;100.00;102766.44;5113846;28;20052;-49
2023/02/15 01:07:33;;;;;;;32.75;18.48;;;;;;;0.21;100.00;102769.00;5110145;28;20039;-49
2023/02/15 01:10:06;;;;;;;32.75;19.10;;;;;;;0.20;100.00;102769.88;5110351;28;20052;-48
2023/02/15 01:12:34;;;;;;;34.42;19.20;;;;;;;0.19;100.00;102758.63;5107930;28;20059;-53
2023/02/15 01:15:04;;;;;;;31.45;18.27;;;;;;;0.20;100.00;102756.91;5113517;28;20118;-52
2023/02/15 01:17:32;;;;;;;31.50;17.50;;;;;;;0.14;100.00;102753.41;5109750;28;20067;-50
2023/02/15 01:20:00;;;;;;;32.35;19.13;;;;;;;0.12;100.00;102752.56;5111037;28;20453;-53
2023/02/15 01:22:28;;;;;;;31.05;17.45;;;;;;;0.08;100.00;102748.22;5109775;28;20055;-49
2023/02/15 01:24:56;;;;;;;34.15;18.90;;;;;;;0.08;100.00;102753.38;5109632;28;20135;-49
2023/02/15 01:27:24;;;;;;;30.50;17.60;;;;;;;0.11;100.00;102747.34;5108874;28;20044;-48
2023/02/15 01:29:52;;;;;;;32.67;18.88;;;;;;;0.08;100.00;102748.22;5113311;28;20498;-50
2023/02/15 01:32:22;;;;;;;34.80;18.70;;;;;;;0.00;100.00;102747.28;5109790;28;20043;-48
2023/02/15 01:34:50;;;;;;;33.17;18.23;;;;;;;-0.01;100.00;102745.53;5111570;28;20118;-49
2023/02/15 01:37:18;;;;;;;31.48;17.92;;;;;;;-0.08;100.00;102742.00;5112215;28;20043;-51
2023/02/15 01:39:46;;;;;;;29.70;18.00;;;;;;;-0.04;100.00;102733.44;5113652;28;20051;-51
2023/02/15 01:42:15;;;;;;;30.40;18.25;;;;;;;-0.05;100.00;102741.19;5113369;28;20567;-51
2023/02/15 01:44:54;;;;;;;31.98;18.80;;;;;;;-0.09;100.00;102727.34;5112873;28;20043;-51
2023/02/15 01:47:30;;;;;;;32.90;17.73;;;;;;;-0.06;100.00;102724.78;5113596;28;20128;-53
2023/02/15 01:50:07;;;;;;;30.67;17.40;;;;;;;-0.09;100.00;102724.75;5111187;28;20113;-53
2023/02/15 01:52:37;;;;;;;33.00;17.67;;;;;;;-0.08;100.00;102735.94;5109748;28;20112;-49
2023/02/15 01:55:06;;;;;;;31.80;18.05;;;;;;;-0.17;100.00;102732.41;5112548;28;20208;-48
2023/02/15 01:57:35;;;;;;;30.42;17.75;;;;;;;-0.13;100.00;102729.88;5107083;28;20075;-51
2023/02/15 02:00:07;;;;;;;32.65;17.95;;;;;;;-0.08;100.00;102735.94;5109948;28;20092;-50
2023/02/15 02:02:37;;;;;;;28.88;17.10;;;;;;;-0.10;100.00;102732.50;5107767;28;20056;-51
2023/02/15 02:05:07;;;;;;;32.20;17.60;;;;;;;-0.13;100.00;102728.16;5110009;28;20047;-48
2023/02/15 02:07:40;;;;;;;31.05;17.85;;;;;;;-0.14;100.00;102731.59;5111331;28;20054;-49
2023/02/15 02:10:12;;;;;;;29.38;17.55;;;;;;;-0.19;100.00;102728.97;5109052;28;20054;-49
2023/02/15 02:12:43;;;;;;;;;;;;;;;-0.20;100.00;102726.38;5107669;28;20154;-51
2023/02/15 02:15:12;;;;;;;30.63;15.77;;;;;;;-0.23;100.00;102721.16;5109196;28;20406;-48
2023/02/15 02:17:52;;;;;;;29.83;16.85;;;;;;;-0.20;100.00;102722.06;5107623;28;20126;-48
2023/02/15 02:20:54;;;;;;;32.60;18.77;;;;;;;-0.22;100.00;102717.72;5109821;28;20723;-50
2023/02/15 02:23:58;;;;;;;30.80;17.20;;;;;;;-0.26;100.00;102703.03;5091236;28;20063;-49
2023/02/15 02:27:11;;;;;;;31.95;18.20;;;;;;;-0.34;100.00;102705.56;5112897;28;20078;-50
2023/02/15 02:30:32;;;;;;;29.65;17.38;;;;;;;-0.30;100.00;102716.78;5093758;28;20055;-50
2023/02/15 02:33:13;;;;;;;32.40;16.77;;;;;;;-0.39;100.00;102699.47;5026731;28;20061;-49
2023/02/15 02:35:49;;;;;;;30.98;17.83;;;;;;;-0.42;100.00;102697.72;5110762;28;20055;-48
2023/02/15 02:38:27;;;;;;;29.58;17.35;;;;;;;-0.40;100.00;102698.56;5109857;28;20043;-49
2023/02/15 02:41:10;;;;;;;33.15;17.55;;;;;;;-0.37;100.00;102700.31;5108676;28;20128;-49
2023/02/15 02:43:48;;;;;;;33.55;17.10;;;;;;;-0.36;100.00;102689.13;5112683;28;20055;-48
2023/02/15 02:46:21;;;;;;;29.63;15.95;;;;;;;-0.43;100.00;102684.78;5112773;28;20055;-48
2023/02/15 02:48:51;;;;;;;30.85;17.08;;;;;;;-0.43;100.00;102692.53;5112608;28;20040;-49
2023/02/15 02:51:21;;;;;;;27.52;16.35;;;;;;;-0.44;100.00;102690.78;5112610;28;20055;-51
2023/02/15 02:53:52;;;;;;;31.30;16.10;;;;;;;-0.44;100.00;102683.03;5110573;28;20051;-50
2023/02/15 02:56:28;;;;;;;32.75;17.73;;;;;;;-0.52;100.00;102682.94;5107986;28;20051;-50
2023/02/15 02:59:03;;;;;;;30.70;16.30;;;;;;;-0.50;100.00;102681.25;5111513;28;20402;-48
2023/02/15 03:01:36;;;;;;;30.77;17.63;;;;;;;-0.53;100.00;102676.91;5112436;28;20097;-52
2023/02/15 03:04:10;;;;;;;28.85;17.08;;;;;;;-0.54;100.00;102674.31;5111522;28;20036;-51
2023/02/15 03:06:46;;;;;;;27.60;15.50;;;;;;;-0.55;100.00;102673.44;5107963;28;20051;-53
2023/02/15 03:09:18;;;;;;;26.90;16.27;;;;;;;-0.56;100.00;102674.31;5107539;28;20047;-49
2023/02/15 03:11:48;;;;;;;30.15;17.33;;;;;;;-0.59;100.00;102671.66;5106125;28;20039;-48
2023/02/15 03:14:19;;;;;;;28.15;15.63;;;;;;;-0.55;100.00;102670.84;5108618;28;20109;-47
2023/02/15 03:16:52;;;;;;;31.40;16.73;;;;;;;-0.58;100.00;102668.22;5107997;28;20054;-47
2023/02/15 03:19:28;;;;;;;30.67;16.20;;;;;;;-0.66;100.00;102664.69;5112455;28;20493;-50
2023/02/15 03:22:03;;;;;;;30.85;17.45;;;;;;;-0.71;100.00;102661.19;5116075;28;20077;-48
2023/02/15 03:24:36;;;;;;;31.10;16.75;;;;;;;-0.70;100.00;102661.22;5111476;28;20055;-48
2023/02/15 03:27:06;;;;;;;;;;;;;;;-0.72;100.00;102654.31;5112199;28;20051;-50
2023/02/15 03:29:35;;;;;;;27.05;15.18;;;;;;;-0.68;100.00;102649.19;5112146;28;20408;-52
2023/02/15 03:32:10;;;;;;;30.13;16.33;;;;;;;-0.68;100.00;102651.78;5112348;28;20502;-51
2023/02/15 03:34:40;;;;;;;27.83;15.80;;;;;;;-0.69;100.00;102649.16;5115191;28;20047;-50
2023/02/15 03:37:14;;;;;;;27.45;15.38;;;;;;;-0.70;100.00;102650.00;5112768;28;20135;-51
2023/02/15 03:39:50;;;;;;;28.70;15.68;;;;;;;-0.77;100.00;102648.22;5111226;28;20075;-52
2023/02/15 03:42:23;;;;;;;28.63;16.00;;;;;;;-0.83;100.00;102642.97;5111062;28;20088;-49
2023/02/15 03:44:58;;;;;;;28.92;16.13;;;;;;;-0.84;100.00;102638.69;5112340;28;20039;-50
2023/02/15 03:47:29;;;;;;;26.25;15.43;;;;;;;-0.79;100.00;102637.00;5111838;28;20056;-51
2023/02/15 03:50:03;;;;;;;29.70;15.77;;;;;;;-0.78;100.00;102633.56;5113159;28;20047;-51
2023/02/15 03:52:32;;;;;;;27.70;15.38;;;;;;;-0.80;100.00;102637.88;5115813;28;20539;-52
2023/02/15 03:55:00;;;;;;;28.40;15.18;;;;;;;-0.77;100.00;102643.06;5112613;28;20521;-51
2023/02/15 04:03:13;;;;;;;27.42;14.65;;;;;;;-0.86;100.00;102633.47;5114040;28;20071;-49
2023/02/15 04:05:44;;;;;;;26.38;15.07;;;;;;;-0.89;100.00;102629.13;5111776;28;20151;-51
2023/02/15 04:08:13;;;;;;;26.52;14.77;;;;;;;-0.94;100.00;102625.66;5111451;28;20049;-48
2023/02/15 04:10:52;;;;;;;28.80;15.43;;;;;;;-0.92;100.00;102621.34;5110383;28;20040;-51
2023/02/15 04:13:21;;;;;;;26.20;15.00;;;;;;;-0.91;100.00;102632.56;5112776;28;20128;-50
2023/02/15 04:16:03;;;;;;;25.17;14.20;;;;;;;-0.90;100.00;102629.13;5113048;28;20039;-50
2023/02/15 04:26:55;;;;;;;23.02;13.32;;;;;;;-0.96;100.00;102623.91;5114624;28;20062;-62
2023/02/15 04:29:25;;;;;;;23.77;13.57;;;;;;;-1.04;100.00;102621.22;5111695;28;20436;-62
2023/02/15 04:31:55;;;;;;;24.23;13.68;;;;;;;-1.08;100.00;102616.88;5112129;28;20541;-63
2023/02/15 04:34:23;;;;;;;25.02;13.80;;;;;;;-1.12;100.00;102622.84;5113334;28;20097;-62
2023/02/15 04:36:53;;;;;;;23.88;13.45;;;;;;;-1.17;100.00;102614.16;5115211;28;20043;-62
2023/02/15 04:39:21;;;;;;;26.45;14.25;;;;;;;-1.21;100.00;102614.13;5112073;28;20051;-62
2023/02/15 04:41:49;;;;;;;25.45;14.30;;;;;;;-1.16;100.00;102618.50;5111988;28;20043;-62
2023/02/15 04:44:17;;;;;;;25.75;14.05;;;;;;;-1.22;100.00;102621.88;5113784;28;20483;-62
2023/02/15 04:46:45;;;;;;;24.10;13.60;;;;;;;-1.21;100.00;102618.44;5111713;28;20051;-62
2023/02/15 04:49:13;;;;;;;22.42;12.38;;;;;;;-1.22;100.00;102616.69;5112048;28;20046;-61
2023/02/15 04:51:41;;;;;;;23.88;12.65;;;;;;;-1.21;100.00;102613.28;5110377;28;20078;-62
2023/02/15 04:54:11;;;;;;;25.13;13.48;;;;;;;-1.23;100.00;102610.69;5111772;28;20494;-62
2023/02/15 04:56:39;;;;;;;25.23;14.07;;;;;;;-1.28;100.00;102614.03;5111932;28;20047;-62
2023/02/15 04:59:07;;;;;;;24.35;13.73;;;;;;;-1.26;100.00;102605.47;5113078;28;20055;-62
2023/02/15 05:01:35;;;;;;;22.90;12.57;;;;;;;-1.29;100.00;102608.00;5111521;28;20052;-62
2023/02/15 05:04:04;;;;;;;23.05;13.73;;;;;;;-1.30;100.00;102610.59;5111985;28;20451;-63
2023/02/15 05:06:32;;;;;;;23.92;13.90;;;;;;;-1.34;100.00;102620.00;5113446;28;20110;-62
2023/02/15 05:09:00;;;;;;;23.88;13.32;;;;;;;-1.40;100.00;102609.59;5114320;28;20047;-62
2023/02/15 05:11:32;;;;;;;25.20;13.75;;;;;;;-1.42;100.00;102608.69;5114534;28;20046;-62
2023/02/15 05:14:00;;;;;;;23.95;13.50;;;;;;;-1.37;100.00;102602.75;5114368;28;20086;-62
2023/02/15 05:16:28;;;;;;;22.98;13.25;;;;;;;-1.36;100.00;102601.06;5114425;28;20063;-62
2023/02/15 05:18:57;;;;;;;22.35;12.77;;;;;;;-1.38;100.00;102597.56;5113587;28;20062;-62
2023/02/15 05:21:25;;;;;;;23.05;13.25;;;;;;;-1.34;100.00;102604.50;5111305;28;20455;-62
2023/02/15 05:23:53;;;;;;;23.35;12.25;;;;;;;-1.38;100.00;102603.63;5111687;28;20514;-62
2023/02/15 05:29:12;;;;;;;22.67;12.93;;;;;;;-1.37;100.00;102595.00;5111499;28;20525;-62
2023/02/15 05:31:40;;;;;;;26.20;13.60;;;;;;;-1.44;100.00;102593.19;5110817;28;20047;-62
2023/02/15 05:34:11;;;;;;;24.45;13.93;;;;;;;-1.46;100.00;102596.59;5111425;28;20092;-62
2023/02/15 05:36:39;;;;;;;24.70;13.50;;;;;;;-1.44;100.00;102584.59;5111370;28;20051;-61
2023/02/15 05:39:08;;;;;;;22.10;13.13;;;;;;;-1.46;100.00;102582.00;5111669;28;20047;-63
2023/02/15 05:41:36;;;;;;;24.30;12.68;;;;;;;-1.46;100.00;102581.13;5110777;28;20051;-62
2023/02/15 05:44:04;;;;;;;22.42;12.82;;;;;;;-1.44;100.00;102587.19;5111915;28;20035;-62
2023/02/15 05:46:34;;;;;;;22.20;12.18;;;;;;;-1.48;100.00;102578.53;5112019;28;20042;-61
2023/02/15 05:49:02;;;;;;;22.65;13.55;;;;;;;-1.50;100.00;102579.34;5112722;28;20118;-61
2023/02/15 05:51:30;;;;;;;24.33;13.07;;;;;;;-1.57;100.00;102589.59;5111405;28;20442;-61
2023/02/15 05:53:58;;;;;;;21.55;12.85;;;;;;;-1.52;100.00;102586.22;5111207;28;20075;-62
2023/02/15 05:56:26;;;;;;;22.77;13.20;;;;;;;-1.50;100.00;102590.56;5111354;28;20039;-62
2023/02/15 05:58:55;;;;;;;24.00;13.15;;;;;;;-1.54;100.00;102588.75;5126096;27;20107;-62
2023/02/15 06:01:23;;;;;;;23.85;12.13;;;;;;;-1.57;100.00;102589.59;5133024;27;20103;-61
2023/02/15 06:03:53;;;;;;;24.75;13.05;;;;;;;-1.59;100.00;102587.84;5133796;27;20482;-62
2023/02/15 06:06:24;;;;;;;24.40;14.63;;;;;;;-1.62;100.00;102586.09;5112361;28;20050;-61
2023/02/15 06:08:52;;;;;;;21.88;13.30;;;;;;;-1.57;100.00;102589.59;5111553;28;20066;-61
2023/02/15 06:11:20;;;;;;;23.35;13.20;;;;;;;-1.59;100.00;102593.00;5113530;28;20075;-61
2023/02/15 06:13:49;;;;;;;25.17;13.43;;;;;;;-1.60;100.00;102592.13;5111536;28;20048;-61
2023/02/15 06:16:17;;;;;;;24.65;15.25;;;;;;;-1.59;100.00;102601.59;5111249;28;20093;-61
2023/02/15 06:18:45;;;;;;;24.27;13.45;;;;;;;-1.58;100.00;102599.88;5112921;28;20157;-61
2023/02/15 06:21:14;;;;;;;24.55;13.88;;;;;;;-1.64;100.00;102598.09;5111865;28;20088;-61
2023/02/15 06:23:43;;;;;;;24.77;13.52;;;;;;;-1.69;100.00;102599.75;5111040;28;20055;-62
2023/02/15 06:26:11;;;;;;;26.42;13.35;;;;;;;-1.63;100.00;102607.56;5121582;27;20039;-62
2023/02/15 06:28:40;;;;;;;25.83;13.98;;;;;;;-1.63;100.00;102599.81;5121284;27;20055;-62
2023/02/15 06:31:09;;;;;;;27.58;14.05;;;;;;;-1.64;100.00;102598.09;5121055;28;20088;-61
2023/02/15 06:33:38;;;;;;;26.33;13.93;;;;;;;-1.70;100.00;102590.28;5122002;27;20043;-61
2023/02/15 06:36:06;;;;;;;25.42;14.15;;;;;;;-1.71;100.00;102596.28;5121528;28;20044;-62
2023/02/15 06:38:35;;;;;;;23.35;13.13;;;;;;;-1.68;100.00;102596.31;5125385;28;20043;-61
2023/02/15 06:41:04;;;;;;;28.08;14.27;;;;;;;-1.71;100.00;102602.28;5129255;28;20489;-61
2023/02/15 06:43:32;;;;;;;24.67;13.63;;;;;;;-1.72;100.00;102599.69;5127020;27;20092;-61
2023/02/15 06:46:00;;;;;;;28.52;13.50;;;;;;;-1.67;100.00;102603.22;5118318;28;20047;-61
2023/02/15 06:48:28;;;;;;;23.27;12.85;;;;;;;-1.71;100.00;102602.28;5117295;28;20911;-61
2023/02/15 06:50:56;;;;;;;25.40;13.48;;;;;;;-1.72;100.00;102595.41;5127520;28;20117;-62
2023/02/15 06:53:25;;;;;;;24.05;13.35;;;;;;;-1.75;100.00;102599.66;5120626;27;20047;-61
2023/02/15 06:56:02;;;;;;;26.33;14.18;;;;;;;-1.71;100.00;102596.28;5123552;27;20497;-61
2023/02/15 06:58:30;;;;;;;26.00;14.13;;;;;;;-1.75;100.00;102594.50;5126656;27;20069;-61
2023/02/15 07:00:58;;;;;;;28.45;14.88;;;;;;;-1.81;100.00;102591.81;5129945;27;20032;-61
2023/02/15 07:03:27;;;;;;;26.70;14.20;;;;;;;-1.82;100.00;102587.53;5123016;27;20527;-61
2023/02/15 07:05:55;;;;;;;26.02;14.50;;;;;;;-1.81;100.00;102584.06;5130494;27;20035;-61
2023/02/15 07:08:24;;;;;;;28.95;14.52;;;;;;;-1.79;100.00;102579.81;5125860;27;20046;-61
2023/02/15 07:12:40;;;;;;;28.25;14.95;;;;;;;-1.77;100.00;102575.53;5122350;27;20044;-61
2023/02/15 07:13:43;;;;;;;24.33;14.27;;;;;;;-1.80;100.00;102572.91;5122977;27;20047;-60
2023/02/15 07:16:11;;;;;;;27.65;14.45;;;;;;;-1.79;100.00;102579.81;5120257;27;20146;-61
2023/02/15 07:18:40;;;;;;;26.35;14.13;;;;;;;-1.67;100.00;102581.72;5120779;27;20454;-60
2023/02/15 07:21:08;;;;;;;29.00;14.95;;;;;;;-1.69;100.00;102573.97;5116937;27;20156;-60
2023/02/15 07:23:37;;;;;;;26.58;15.57;;;;;;;-1.69;100.00;102573.97;5121469;27;20526;-47
2023/02/15 07:26:08;;;;;;;26.52;14.15;;;;;;;-1.67;100.00;102574.81;5123935;27;20065;-48
2023/02/15 07:28:37;;;;;;;29.42;16.08;;;;;;;-1.67;100.00;102563.66;5116423;27;20039;-49
2023/02/15 07:31:06;;;;;;;30.98;16.75;;;;;;;-1.48;100.00;102563.03;5120174;27;20096;-49
2023/02/15 07:33:35;;;;;;;29.83;15.45;;;;;;;-1.23;100.00;102553.00;5120729;27;20119;-49
2023/02/15 07:36:05;;;;;;;27.17;15.70;;;;;;;-0.92;100.00;102553.34;5130110;27;20042;-49
2023/02/15 07:38:34;;;;;;;31.73;17.55;;;;;;;-0.86;100.00;102555.97;5133336;27;20046;-48
2023/02/15 07:41:09;;;;;;;28.17;15.88;;;;;;;-0.72;100.00;102550.94;5124436;27;20052;-48
2023/02/15 07:43:39;;;;;;;32.58;17.08;;;;;;;-0.39;100.00;102552.94;5122130;27;20036;-50
2023/02/15 07:46:09;;;;;;;31.48;16.63;;;;;;;-0.22;100.00;102555.66;5122598;27;20050;-52
2023/02/15 07:48:38;;;;;;;31.40;16.02;;;;;;;-0.01;100.00;102556.66;5122419;27;20043;-51
2023/02/15 07:51:08;;;;;;;30.95;16.98;;;;;;;0.12;100.00;102550.72;5118955;27;20043;-50
2023/02/15 07:53:37;;;;;;;29.88;16.63;;;;;;;0.25;100.00;102543.88;5120682;27;20042;-49
2023/02/15 07:56:09;;;;;;;27.85;15.93;;;;;;;0.39;100.00;102541.34;5118643;27;20054;-47
2023/02/15 07:58:55;;;;;;;31.02;17.27;;;;;;;0.59;100.00;102543.16;5116864;27;20074;-52
2023/02/15 08:01:25;;;;;;;27.88;16.25;;;;;;;0.76;100.00;102544.06;5123117;27;20039;-52
2023/02/15 08:03:54;;;;;;;30.70;16.88;;;;;;;1.00;100.00;102543.25;5122022;27;20039;-52
2023/02/15 08:06:24;;;;;;;29.27;17.38;;;;;;;1.25;100.00;102547.63;5121166;27;20435;-50
2023/02/15 08:08:52;;;;;;;33.08;17.63;;;;;;;1.35;100.00;102546.78;5124619;27;20445;-51
2023/02/15 08:11:28;;;;;;;33.13;18.23;;;;;;;1.46;100.00;102536.38;5130100;27;20051;-51
2023/02/15 08:13:59;;;;;;;35.58;18.65;;;;;;;1.72;100.00;102531.22;5116778;27;20039;-50
2023/02/15 08:16:31;;;;;;;40.17;19.85;;;;;;;1.78;100.00;102530.34;5110738;28;20048;-51
2023/02/15 08:19:00;;;;;;;38.38;20.58;;;;;;;2.01;100.00;102544.13;5112118;28;20473;-52
2023/02/15 08:21:30;;;;;;;33.83;19.30;;;;;;;2.10;100.00;102521.59;5110871;28;20032;-47
2023/02/15 08:23:59;;;;;;;38.58;21.50;;;;;;;2.19;100.00;102522.44;5114039;28;20464;-48
2023/02/15 08:26:29;;;;;;;37.88;22.45;;;;;;;2.23;100.00;102519.84;5114759;28;20212;-47
2023/02/15 08:28:57;;;;;;;39.35;21.23;;;;;;;2.53;100.00;102513.66;5111944;28;20204;-47
2023/02/15 08:31:26;;;;;;;39.33;21.63;;;;;;;2.67;100.00;102508.38;5110811;28;20051;-47
2023/02/15 08:33:56;;;;;;;35.92;20.85;;;;;;;2.81;100.00;102510.91;5111585;28;20118;-49
2023/02/15 08:36:28;;;;;;;36.38;19.38;;;;;;;3.01;100.00;102505.56;5111393;28;20036;-48
2023/02/15 08:38:59;;;;;;;35.30;19.20;;;;;;;3.06;100.00;102514.22;5114720;28;20054;-48
2023/02/15 08:41:31;;;;;;;39.08;21.77;;;;;;;3.17;100.00;102508.94;5109569;28;21086;-48
2023/02/15 08:44:01;;;;;;;35.60;20.35;;;;;;;3.20;100.00;102504.59;5113749;27;20039;-48
2023/02/15 08:46:31;;;;;;;35.78;20.42;;;;;;;3.29;100.00;102495.00;5118062;27;20111;-50
2023/02/15 08:49:00;;;;;;;37.42;19.48;;;;;;;3.42;100.00;102493.97;5123512;27;20554;-48
2023/02/15 08:51:29;;;;;;;39.40;21.02;;;;;;;3.54;100.00;102493.03;5122606;27;20066;-47
2023/02/15 08:54:00;;;;;;;38.97;20.13;;;;;;;3.60;100.00;102492.97;5120483;27;20650;-48
2023/02/15 08:56:33;;;;;;;37.75;21.30;;;;;;;3.70;100.00;102505.00;5117929;27;20031;-51
2023/02/15 08:59:01;;;;;;;;;;;;;;;3.88;100.00;102493.53;5121107;27;20054;-51
2023/02/15 09:01:31;;;;;;;37.13;19.80;;;;;;;3.82;100.00;102492.75;5120250;27;19970;-50
2023/02/15 09:04:01;;;;;;;36.30;21.00;;;;;;;3.89;100.00;102494.41;5116249;27;20051;-51
2023/02/15 09:06:29;;;;;;;36.70;21.60;;;;;;;4.05;100.00;102501.16;5112133;27;20054;-49
2023/02/15 09:08:58;;;;;;;36.30;20.33;;;;;;;3.94;100.00;102496.94;5110349;28;20131;-50
2023/02/15 09:11:28;;;;;;;35.45;20.42;;;;;;;4.06;100.00;102497.69;5109808;28;20440;-52
2023/02/15 09:14:00;;;;;;;38.42;20.40;;;;;;;4.08;100.00;102497.69;5110818;28;20036;-50
2023/02/15 09:16:30;;;;;;;37.87;20.47;;;;;;;4.17;100.00;102491.47;5116599;27;20069;-51
2023/02/15 09:19:01;;;;;;;37.50;20.85;;;;;;;4.27;100.00;102489.63;5119613;27;20475;-49
2023/02/15 09:21:29;;;;;;;33.78;20.65;;;;;;;4.33;100.00;102484.34;5115403;27;20050;-50
2023/02/15 09:24:00;;;;;;;38.88;22.23;;;;;;;4.14;100.00;102489.78;5118902;27;20097;-49
2023/02/15 09:26:30;;;;;;;33.22;21.50;;;;;;;4.32;100.00;102487.84;5116885;27;20052;-51
2023/02/15 09:29:01;;;;;;;37.33;21.48;;;;;;;4.35;100.00;102486.06;5121230;27;20065;-51
2023/02/15 09:31:30;;;;;;;35.65;21.13;;;;;;;4.47;100.00;102482.44;5121439;27;20035;-49
2023/02/15 09:34:00;;;;;;;37.70;21.40;;;;;;;4.53;100.00;102490.16;5117584;27;20043;-53
2023/02/15 09:36:30;;;;;;;36.15;20.75;;;;;;;4.55;100.00;102485.81;5111165;28;20055;-55
2023/02/15 09:39:02;;;;;;;37.85;21.55;;;;;;;4.76;100.00;102488.09;5116023;27;20042;-48
2023/02/15 09:41:59;;;;;;;39.10;21.83;;;;;;;4.78;100.00;102491.56;5114913;27;20135;-48
2023/02/15 09:44:43;;;;;;;36.28;20.33;;;;;;;4.80;100.00;102493.28;5118073;27;20571;-49
2023/02/15 09:47:32;;;;;;;36.33;19.85;;;;;;;4.89;100.00;102489.66;5117695;27;20497;-49
2023/02/15 09:50:08;;;;;;;34.70;20.52;;;;;;;4.89;100.00;102484.44;5121212;27;20051;-48
2023/02/15 09:52:50;;;;;;;38.10;20.13;;;;;;;4.94;100.00;102485.25;5116899;27;20483;-48
2023/02/15 09:55:32;;;;;;;34.75;19.85;;;;;;;5.10;100.00;102482.38;5113484;28;20073;-49
2023/02/15 09:58:10;;;;;;;35.92;20.40;;;;;;;5.23;100.00;102470.88;5110156;28;20047;-49
2023/02/15 10:00:50;;;;;;;36.08;19.92;;;;;;;5.37;100.00;102481.06;5109770;28;20478;-49
2023/02/15 10:03:38;;;;;;;36.80;20.90;;;;;;;5.58;100.00;102475.47;5111736;28;20048;-47
2023/02/15 10:06:24;;;;;;;38.42;21.05;;;;;;;5.69;100.00;102477.03;5109839;28;20804;-46
2023/02/15 10:09:19;;;;;;;35.45;20.80;;;;;;;5.85;100.00;102470.63;5113283;28;20747;-49
2023/02/15 10:11:59;;;;;;;32.58;19.33;;;;;;;5.97;100.00;102472.16;5110605;28;20058;-49
2023/02/15 10:14:48;;;;;;;33.40;18.67;;;;;;;6.10;100.00;102470.16;5115323;27;21764;-52
2023/02/15 10:17:30;;;;;;;37.58;19.13;;;;;;;6.28;100.00;102474.16;5115029;27;20051;-51
2023/02/15 10:20:14;;;;;;;33.95;18.58;;;;;;;6.48;100.00;102463.28;5109892;28;20055;-51
2023/02/15 10:22:57;;;;;;;32.58;18.70;;;;;;;6.54;100.00;102464.88;5108825;28;20051;-47
2023/02/15 10:25:37;;;;;;;33.97;19.90;;;;;;;6.81;100.00;102467.78;5107947;28;20156;-48
2023/02/15 10:28:07;;;;;;;33.40;20.65;;;;;;;6.94;100.00;102469.22;5112838;28;20492;-48
2023/02/15 10:30:46;;;;;;;34.47;19.38;;;;;;;7.05;100.00;102471.56;5111528;28;20054;-49
2023/02/15 10:33:32;;;;;;;33.90;19.02;;;;;;;7.41;100.00;102471.53;5112956;28;20482;-52
2023/02/15 10:36:12;;;;;;;37.30;20.33;;;;;;;7.66;100.00;102471.72;5109396;28;20051;-53
2023/02/15 10:38:47;;;;;;;31.70;19.95;;;;;;;7.65;100.00;102469.16;5108861;28;20047;-49
2023/02/15 10:41:28;;;;;;;31.58;18.55;;;;;;;8.23;100.00;102464.03;5111069;28;20505;-52
2023/02/15 10:44:13;;;;;;;31.10;19.33;;;;;;;8.13;100.00;102469.53;5111508;28;20082;-52
2023/02/15 10:46:57;;;;;;;32.20;19.07;;;;;;;8.55;100.00;102473.59;5108841;28;20054;-51
2023/02/15 10:49:40;;;;;;;28.52;17.73;;;;;;;9.00;100.00;102468.69;5109034;28;20126;-51
2023/02/15 10:52:22;;;;;;;32.72;19.90;;;;;;;9.16;100.00;102461.19;5109394;28;20050;-52
2023/02/15 10:54:57;;;;;;;;;;;;;;;8.93;100.00;102462.78;5111948;28;20130;-53
2023/02/15 10:57:32;;;;;;;30.08;17.52;;;;;;;9.19;100.00;102453.19;5107900;28;19920;-52
2023/02/15 11:00:11;;;;;;;32.65;19.15;;;;;;;9.57;100.00;102446.63;5109072;28;20052;-53
2023/02/15 11:02:55;;;;;;;31.08;19.15;;;;;;;9.79;100.00;102449.34;5108109;28;20143;-50
2023/02/15 11:05:39;;;;;;;30.55;17.88;;;;;;;9.78;100.00;102452.88;5109219;28;20039;-50
2023/02/15 11:08:12;;;;;;;32.28;18.13;;;;;;;10.09;100.00;102456.13;5110583;28;20051;-49
2023/02/15 11:10:45;;;;;;;30.70;18.45;;;;;;;10.63;100.00;102456.75;5107852;28;20056;-49
2023/02/15 11:13:15;;;;;;;;;;;;;;;10.56;100.00;102450.03;5109084;28;20058;-50
2023/02/15 11:15:48;;;;;;;28.80;18.20;;;;;;;10.87;100.00;102449.66;5109230;28;19919;-50
2023/02/15 11:18:24;;;;;;;31.00;17.80;;;;;;;10.99;100.00;102445.66;5112552;28;20534;-49
2023/02/15 11:20:58;;;;;;;31.05;18.20;;;;;;;11.01;100.00;102443.81;5112419;28;20043;-49
2023/02/15 11:23:28;;;;;;;33.08;19.17;;;;;;;11.43;100.00;102437.63;5112183;28;20505;-49
2023/02/15 11:25:59;;;;;;;28.88;17.38;;;;;;;11.38;100.00;102439.59;5112475;28;20093;-49
2023/02/15 11:28:34;;;;;;;29.08;18.25;;;;;;;11.69;100.00;102438.25;5111430;28;20063;-52
2023/02/15 11:31:14;;;;;;;29.35;17.83;;;;;;;11.95;100.00;102444.19;5107113;28;20502;-51
2023/02/15 11:33:51;;;;;;;30.92;18.58;;;;;;;12.07;100.00;102426.94;5108500;28;20450;-49
2023/02/15 11:36:25;;;;;;;26.45;17.63;;;;;;;12.31;100.00;102425.78;5109048;28;20095;-50
2023/02/15 11:38:59;;;;;;;28.40;18.10;;;;;;;12.47;100.00;102420.63;5110892;28;20075;-50
2023/02/15 11:41:30;;;;;;;29.80;18.38;;;;;;;12.60;95.91;102418.25;5110985;28;20109;-52
2023/02/15 11:44:07;;;;;;;28.30;18.65;;;;;;;12.83;96.39;102411.00;5111862;28;20477;-50
2023/02/15 11:46:37;;;;;;;29.80;18.27;;;;;;;12.57;92.06;102413.13;5110879;28;20114;-50